NY42 weather

Paradise Airport
Red Creek, New York, United States

Public forecast

Using degrees Fahrenheit for public forecast. Weather courtesy of forecast.io.

Closest aviation weather report (METAR) to Paradise Airport

Closest report is Oswego County Airport, 15.3 nm (28.4 km) ENE. Retrieved 2019/10/18 11:54 UTC (14 minutes ago):

KFZY 181154Z AUTO 31007KT 10SM OVC027 07/03 A2988 RMK AO2 RAE53 SLP119 P0000 60002 70040 T00670033 10083 20067 51026

Closest aviation forecast (TAF) to Paradise Airport

Closest forecast is Syracuse Hancock International Airport, 26.4 nm (48.9 km) ESE. Retrieved 2019/10/18 12:22 UTC (0 seconds ago):

TAF KSYR 181120Z 1812/1912 31007KT P6SM OVC025 FM190000 VRB03KT P6SM BKN045 FM191100 VRB02KT P6SM SCT070